Time;durP1;ratioP1;P1;durP2;ratioP2;P2;SDS_P1;SDS_P2;PMS_P1;PMS_P2;Temp;Humidity;BMP_temperature;BMP_pressure;BME280_temperature;BME280_humidity;BME280_pressure;Samples;Min_cycle;Max_cycle;Signal;HPM_P1;HPM_P2
2023/10/09 00:00:31;;;;;;;;;15.00;14.00;;;;;11.62;100.00;99653.53;6215971;28;96553;-67
2023/10/09 00:03:27;;;;;;;;;9.20;9.20;;;;;11.58;100.00;99642.28;6217391;28;96928;-68
2023/10/09 00:06:37;;;;;;;;;16.00;15.00;;;;;11.54;100.00;99645.63;6234371;28;96329;-66
2023/10/09 00:09:47;;;;;;;;;11.67;11.67;;;;;11.51;100.00;99644.19;6193178;28;96428;-68
2023/10/09 00:12:51;;;;;;;;;15.00;14.00;;;;;11.45;100.00;99638.78;6206778;28;96719;-68
2023/10/09 00:16:00;;;;;;;;;13.40;13.00;;;;;11.41;100.00;99635.69;6218417;28;96468;-69
2023/10/09 00:19:14;;;;;;;;;14.60;13.00;;;;;11.29;100.00;99629.25;6237984;28;96950;-69
2023/10/09 00:22:25;;;;;;;;;12.60;12.00;;;;;11.32;100.00;99636.09;6237849;28;96397;-69
2023/10/09 00:25:30;;;;;;;;;11.00;11.00;;;;;11.31;100.00;99635.28;6236556;28;96296;-68
2023/10/09 00:28:35;;;;;;;;;11.20;11.00;;;;;11.28;100.00;99627.59;6253169;27;96341;-69
2023/10/09 00:31:38;;;;;;;;;11.60;10.60;;;;;11.26;100.00;99643.16;6219974;28;96397;-69
2023/10/09 00:34:41;;;;;;;;;15.75;14.75;;;;;11.24;100.00;99632.56;6217575;28;96744;-69
2023/10/09 00:37:45;;;;;;;;;11.50;11.00;;;;;11.20;100.00;99612.44;6235859;28;96590;-69
2023/10/09 00:40:56;;;;;;;;;11.00;10.40;;;;;11.09;100.00;99604.94;6218636;28;96415;-69
2023/10/09 00:44:07;;;;;;;;;12.60;11.60;;;;;11.01;100.00;99607.03;6237312;28;97323;-68
2023/10/09 00:47:22;;;;;;;;;13.00;12.20;;;;;10.85;100.00;99598.31;6242951;27;96566;-69
2023/10/09 00:50:26;;;;;;;;;13.20;12.20;;;;;10.81;100.00;99594.34;6227431;28;96863;-68
2023/10/09 00:53:33;;;;;;;;;12.80;11.80;;;;;10.79;100.00;99595.63;6245473;27;96265;-69
2023/10/09 00:56:41;;;;;;;;;13.00;13.00;;;;;10.77;100.00;99586.88;6243867;28;96299;-69
2023/10/09 00:59:59;;;;;;;;;9.00;9.00;;;;;10.74;100.00;99568.44;6245470;28;96483;-69
2023/10/09 01:03:19;;;;;;;;;11.00;11.00;;;;;10.77;100.00;99578.78;6226062;28;97547;-68
2023/10/09 01:06:28;;;;;;;;;14.00;13.00;;;;;10.78;100.00;99558.88;6242130;28;96788;-68
2023/10/09 01:09:36;;;;;;;;;12.00;11.00;;;;;10.78;100.00;99553.50;6244943;28;96498;-69
2023/10/09 01:12:44;;;;;;;;;11.00;11.00;;;;;10.75;100.00;99553.91;6245377;28;96653;-69
2023/10/09 01:15:49;;;;;;;;;12.00;11.20;;;;;10.76;100.00;99542.06;6217175;28;98887;-69
2023/10/09 01:18:53;;;;;;;;;14.00;13.00;;;;;10.75;100.00;99526.94;6225453;28;96702;-69
2023/10/09 01:22:04;;;;;;;;;12.00;12.00;;;;;10.75;100.00;99524.25;6227637;28;96884;-68
2023/10/09 01:25:10;;;;;;;;;12.50;12.00;;;;;10.74;100.00;99526.13;6226642;28;96329;-69
2023/10/09 01:28:15;;;;;;;;;11.00;9.00;;;;;10.67;100.00;99527.13;6259730;27;97529;-69
2023/10/09 01:31:20;;;;;;;;;15.00;13.80;;;;;10.63;100.00;99528.59;6243902;28;96527;-69
2023/10/09 01:34:41;;;;;;;;;13.00;12.00;;;;;10.50;100.00;99504.31;6258689;27;96701;-68
2023/10/09 01:37:46;;;;;;;;;10.00;8.75;;;;;10.64;100.00;99511.38;6243187;28;96848;-69
2023/10/09 01:41:02;;;;;;;;;12.50;12.00;;;;;10.66;100.00;99531.69;6243226;28;98377;-69
2023/10/09 01:44:11;;;;;;;;;11.00;10.00;;;;;10.64;100.00;99524.84;6234972;28;98420;-69
2023/10/09 01:47:18;;;;;;;;;13.00;11.40;;;;;10.66;100.00;99515.50;6243165;28;96126;-69
2023/10/09 01:50:27;;;;;;;;;10.20;9.20;;;;;10.72;100.00;99521.94;6225986;28;96461;-69
2023/10/09 01:53:32;;;;;;;;;11.00;9.40;;;;;10.76;100.00;99517.78;6243789;28;96461;-68
2023/10/09 01:56:40;;;;;;;;;10.00;10.00;;;;;10.78;100.00;99526.53;6240816;27;96968;-68
2023/10/09 01:59:46;;;;;;;;;8.80;7.00;;;;;10.83;100.00;99530.25;6254356;27;96925;-66
2023/10/09 02:02:50;;;;;;;;;8.00;7.00;;;;;10.81;100.00;99521.53;6219673;28;96886;-68
2023/10/09 02:05:59;;;;;;;;;7.40;6.40;;;;;10.83;100.00;99521.34;6237064;28;96901;-67
2023/10/09 02:09:06;;;;;;;;;6.00;5.33;;;;;10.84;100.00;99513.03;6182654;28;96718;-67
2023/10/09 02:12:11;;;;;;;;;10.60;8.20;;;;;10.89;100.00;99525.91;6194554;28;96586;-67
2023/10/09 02:15:15;;;;;;;;;9.80;9.00;;;;;10.93;100.00;99507.41;6196406;28;96686;-67
2023/10/09 02:18:26;;;;;;;;;8.00;7.60;;;;;10.89;100.00;99516.97;6219747;28;97854;-69
2023/10/09 02:21:33;;;;;;;;;5.00;4.20;;;;;10.88;100.00;99518.84;6218832;28;96484;-68
2023/10/09 02:24:50;;;;;;;;;8.50;7.50;;;;;10.91;100.00;99512.19;6239559;28;96556;-69
2023/10/09 02:27:59;;;;;;;;;6.00;6.00;;;;;10.98;100.00;99500.38;6240792;27;96648;-69
2023/10/09 02:31:10;;;;;;;;;10.60;8.60;;;;;11.04;100.00;99504.94;6220380;28;97489;-69
2023/10/09 02:34:15;;;;;;;;;9.50;8.50;;;;;11.08;100.00;99484.56;6239159;28;96755;-69
2023/10/09 02:37:23;;;;;;;;;8.25;7.25;;;;;11.10;100.00;99471.69;6220026;28;97123;-69
2023/10/09 02:40:32;;;;;;;;;7.60;7.40;;;;;11.14;100.00;99477.50;6240153;28;97467;-69
2023/10/09 02:43:44;;;;;;;;;5.00;5.00;;;;;11.10;100.00;99455.50;6239859;28;96863;-69
2023/10/09 02:46:47;;;;;;;;;6.00;6.00;;;;;11.21;100.00;99467.50;6220785;28;96464;-69
2023/10/09 02:49:51;;;;;;;;;5.00;5.00;;;;;11.20;100.00;99477.47;6221093;27;96710;-68
2023/10/09 02:52:59;;;;;;;;;5.60;5.00;;;;;11.22;100.00;99477.28;6264269;27;96352;-69
2023/10/09 02:56:12;;;;;;;;;9.00;9.00;;;;;11.26;100.00;99481.22;6254423;27;96280;-68
2023/10/09 02:59:17;;;;;;;;;5.20;5.20;;;;;11.33;100.00;99470.41;6220262;28;96693;-68
2023/10/09 03:02:20;;;;;;;;;7.80;7.00;;;;;11.36;100.00;99472.66;6218360;27;96853;-69
2023/10/09 03:05:23;;;;;;;;;6.00;5.00;;;;;11.40;100.00;99471.19;6237478;27;96766;-68
2023/10/09 03:08:27;;;;;;;;;4.00;4.00;;;;;11.45;100.00;99466.81;6219183;28;96754;-67
2023/10/09 03:11:32;;;;;;;;;7.00;7.00;;;;;11.41;100.00;99462.88;6235983;28;96338;-68
2023/10/09 03:14:38;;;;;;;;;4.20;2.60;;;;;11.49;100.00;99457.25;6239493;28;96392;-68
2023/10/09 03:17:42;;;;;;;;;10.40;10.40;;;;;11.50;100.00;99449.97;6245826;27;96344;-69
2023/10/09 03:20:47;;;;;;;;;8.00;6.50;;;;;11.53;100.00;99461.16;6238237;28;96474;-67
2023/10/09 03:23:50;;;;;;;;;9.00;8.25;;;;;11.54;100.00;99462.00;6237671;28;96454;-69
2023/10/09 03:26:55;;;;;;;;;7.00;6.25;;;;;11.54;100.00;99459.28;6221462;27;98617;-68
2023/10/09 03:30:05;;;;;;;;;8.00;8.00;;;;;11.57;100.00;99467.00;6238540;27;96539;-68
2023/10/09 03:33:08;;;;;;;;;10.00;9.50;;;;;11.59;100.00;99454.91;6236512;28;96288;-68
2023/10/09 03:36:12;;;;;;;;;7.25;6.50;;;;;11.49;100.00;99456.41;6235930;28;96231;-69
2023/10/09 03:39:24;;;;;;;;;6.20;5.20;;;;;11.53;100.00;99468.47;6219565;28;96919;-69
2023/10/09 03:42:30;;;;;;;;;5.80;5.20;;;;;11.49;100.00;99468.03;6217315;28;98195;-69
2023/10/09 03:45:35;;;;;;;;;6.80;5.40;;;;;11.53;100.00;99450.38;6216978;28;96297;-65
2023/10/09 03:48:38;;;;;;;;;8.20;8.20;;;;;11.50;100.00;99440.00;6234421;28;97654;-69
2023/10/09 03:51:42;;;;;;;;;7.25;6.25;;;;;11.50;100.00;99436.47;6224548;28;96938;-66
2023/10/09 03:54:47;;;;;;;;;5.40;5.00;;;;;11.53;100.00;99436.06;6233075;28;97825;-67
2023/10/09 03:57:50;;;;;;;;;8.00;7.40;;;;;11.53;100.00;99428.75;6215066;28;96886;-66
2023/10/09 04:00:55;;;;;;;;;4.60;4.40;;;;;11.60;100.00;99434.16;6197547;28;96941;-68
2023/10/09 04:04:00;;;;;;;;;4.00;4.00;;;;;11.66;100.00;99407.13;6235820;27;96554;-67
2023/10/09 04:07:06;;;;;;;;;4.40;4.00;;;;;11.71;100.00;99384.84;6241589;27;96271;-68
2023/10/09 04:10:32;;;;;;;;;4.50;4.50;;;;;11.70;100.00;99378.63;6214846;28;96779;-68
2023/10/09 04:13:35;;;;;;;;;4.40;4.00;;;;;11.77;100.00;99385.91;6215407;28;96751;-68
2023/10/09 04:16:51;;;;;;;;;4.60;4.60;;;;;11.83;100.00;99387.72;6235138;28;96861;-68
2023/10/09 04:23:16;;;;;;;;;4.60;4.40;;;;;11.93;100.00;99390.75;6235925;28;97192;-69
2023/10/09 04:26:20;;;;;;;;;7.00;6.00;;;;;11.97;100.00;99387.41;6221222;28;96698;-70
2023/10/09 04:29:27;;;;;;;;;3.80;3.80;;;;;11.97;100.00;99379.28;6233834;28;96998;-69
2023/10/09 04:32:34;;;;;;;;;5.00;5.00;;;;;12.03;100.00;99377.59;6238475;27;96447;-69
2023/10/09 04:35:39;;;;;;;;;5.00;5.00;;;;;12.05;100.00;99376.34;6241165;27;97177;-69
2023/10/09 04:38:55;;;;;;;;;7.00;7.00;;;;;12.09;100.00;99366.75;6235543;28;96362;-69
2023/10/09 04:45:59;;;;;;;;;3.00;3.00;;;;;12.24;100.00;99350.19;6235443;28;96349;-70
2023/10/09 04:48:46;;;;;;;;;5.00;4.60;;;;;12.21;100.00;99341.72;6233983;28;96705;-69
2023/10/09 04:52:04;;;;;;;;;7.00;6.00;;;;;12.23;100.00;99331.50;6234969;28;96436;-69
2023/10/09 04:55:17;;;;;;;;;6.00;5.00;;;;;12.21;100.00;99334.44;6226923;28;96814;-68
2023/10/09 04:58:25;;;;;;;;;6.00;6.00;;;;;12.23;100.00;99340.44;6230112;28;96515;-69
2023/10/09 05:01:35;;;;;;;;;3.00;3.00;;;;;12.28;100.00;99345.16;6216176;28;97043;-67
2023/10/09 05:04:41;;;;;;;;;4.80;4.40;;;;;12.31;100.00;99340.16;6234068;28;96796;-68
2023/10/09 05:07:54;;;;;;;;;3.80;3.80;;;;;12.33;100.00;99337.22;6234217;28;96716;-70
2023/10/09 05:11:15;;;;;;;;;5.00;5.00;;;;;12.35;100.00;99343.25;6235056;28;96497;-68
2023/10/09 05:14:38;;;;;;;;;6.00;5.50;;;;;12.36;100.00;99339.50;6234725;27;97770;-69
2023/10/09 05:17:51;;;;;;;;;6.00;5.00;;;;;12.37;100.00;99346.53;6217255;28;96398;-69
2023/10/09 05:20:57;;;;;;;;;5.50;5.50;;;;;12.37;100.00;99328.44;6215107;28;96756;-70
2023/10/09 05:24:19;;;;;;;;;3.60;3.00;;;;;12.38;100.00;99334.69;6235288;27;96731;-69
2023/10/09 05:27:45;;;;;;;;;4.00;4.00;;;;;12.37;100.00;99320.34;6218873;28;97481;-69
2023/10/09 05:30:55;;;;;;;;;3.00;2.00;;;;;12.39;100.00;99307.44;6235200;28;96388;-69
2023/10/09 05:34:01;;;;;;;;;5.40;4.40;;;;;12.39;100.00;99303.91;6234594;28;96351;-68
2023/10/09 05:37:17;;;;;;;;;5.00;4.60;;;;;12.37;100.00;99304.09;6238392;28;96448;-69
2023/10/09 05:40:30;;;;;;;;;7.00;7.00;;;;;12.37;100.00;99301.41;6241267;28;96384;-70
2023/10/09 05:47:22;;;;;;;;;6.40;5.40;;;;;12.33;100.00;99285.84;6239705;28;96972;-69
2023/10/09 05:50:37;;;;;;;;;7.00;6.00;;;;;12.31;100.00;99274.44;6239539;28;96788;-70
2023/10/09 05:54:11;;;;;;;;;7.00;6.00;;;;;12.30;100.00;99256.56;6239198;27;96641;-69
2023/10/09 06:04:04;;;;;;;;;6.00;6.00;;;;;12.45;100.00;99232.69;6238397;28;96390;-69
2023/10/09 06:07:13;;;;;;;;;3.40;3.40;;;;;12.43;100.00;99216.69;6236970;28;97589;-69
2023/10/09 06:10:37;;;;;;;;;4.00;4.00;;;;;12.62;100.00;99235.63;6254718;27;96417;-67
2023/10/09 06:13:45;;;;;;;;;4.40;4.40;;;;;12.73;100.00;99232.97;6239007;28;96486;-68
2023/10/09 06:16:59;;;;;;;;;2.00;2.00;;;;;12.81;100.00;99229.97;6220641;28;96689;-70
2023/10/09 06:20:39;;;;;;;;;3.00;3.00;;;;;12.89;100.00;99235.06;6239397;28;96703;-69
2023/10/09 06:23:57;;;;;;;;;4.80;4.80;;;;;12.99;100.00;99239.94;6221426;27;96903;-67
2023/10/09 06:27:13;;;;;;;;;3.00;3.00;;;;;13.10;100.00;99259.97;6222314;28;96378;-69
2023/10/09 06:30:24;;;;;;;;;4.00;3.00;;;;;13.22;100.00;99280.69;6239523;28;96591;-69
2023/10/09 06:33:29;;;;;;;;;4.00;4.00;;;;;13.30;100.00;99282.22;6221911;28;99407;-69
2023/10/09 06:36:32;;;;;;;;;5.00;5.00;;;;;13.25;100.00;99293.75;6221213;28;96278;-69
2023/10/09 06:39:50;;;;;;;;;4.33;3.67;;;;;13.26;100.00;99298.09;6239952;28;96949;-69
2023/10/09 06:42:55;;;;;;;;;5.60;5.60;;;;;13.26;100.00;99314.34;6219662;27;96645;-70
2023/10/09 06:46:37;;;;;;;;;6.50;5.50;;;;;13.29;100.00;99321.22;6204131;28;97264;-68
2023/10/09 06:49:29;;;;;;;;;5.00;4.40;;;;;13.32;100.00;99315.31;6221832;28;96347;-70
2023/10/09 06:55:50;;;;;;;;;6.00;5.00;;;;;13.37;100.00;99315.47;6236632;27;96657;-70
2023/10/09 06:58:55;;;;;;;;;8.00;7.00;;;;;13.36;100.00;99303.81;6238443;27;96424;-70
2023/10/09 07:02:25;;;;;;;;;4.00;3.40;;;;;13.35;100.00;99307.56;6239174;28;96459;-70
2023/10/09 07:05:38;;;;;;;;;4.67;4.67;;;;;13.29;100.00;99299.56;6218220;28;98585;-68
2023/10/09 07:08:57;;;;;;;;;5.00;5.00;;;;;13.25;100.00;99306.44;6240107;28;96653;-69
2023/10/09 07:12:04;;;;;;;;;4.60;4.60;;;;;13.12;100.00;99287.69;6237354;28;97148;-70
2023/10/09 07:18:49;;;;;;;;;4.00;3.00;;;;;13.15;100.00;99298.88;6219691;28;98818;-68
2023/10/09 07:21:54;;;;;;;;;4.25;4.25;;;;;13.03;100.00;99298.81;6234998;28;96583;-69
2023/10/09 07:24:58;;;;;;;;;5.40;5.40;;;;;12.98;100.00;99298.66;6218768;28;96782;-69
2023/10/09 07:28:03;;;;;;;;;6.40;6.40;;;;;12.93;100.00;99305.81;6221127;28;96514;-69
2023/10/09 07:31:09;;;;;;;;;5.20;4.20;;;;;12.93;100.00;99293.09;6237967;28;97168;-69
2023/10/09 07:37:37;;;;;;;;;9.80;7.40;;;;;12.79;100.00;99293.47;6239257;28;96606;-69
2023/10/09 07:40:55;;;;;;;;;7.00;6.60;;;;;12.83;100.00;99291.97;6221340;28;96437;-69
2023/10/09 07:44:18;;;;;;;;;6.60;6.00;;;;;12.80;100.00;99287.84;6238234;28;96277;-69
2023/10/09 07:47:45;;;;;;;;;6.00;6.00;;;;;12.79;100.00;99286.19;6238929;28;96304;-70
2023/10/09 07:50:49;;;;;;;;;3.50;3.00;;;;;12.59;100.00;99288.28;6203579;28;98452;-69
2023/10/09 07:53:57;;;;;;;;;6.00;5.60;;;;;12.63;100.00;99280.53;6219636;28;96372;-69
2023/10/09 07:57:08;;;;;;;;;4.00;4.00;;;;;12.63;100.00;99277.84;6235882;28;96397;-68
2023/10/09 08:00:35;;;;;;;;;3.33;3.33;;;;;12.58;100.00;99278.53;6236870;28;96522;-68
2023/10/09 08:03:38;;;;;;;;;3.60;3.60;;;;;12.49;100.00;99277.16;6235441;28;96896;-68
2023/10/09 08:06:43;;;;;;;;;3.00;3.00;;;;;12.59;100.00;99289.13;6236348;28;96546;-68
2023/10/09 08:16:51;;;;;;;;;3.00;2.00;;;;;12.61;100.00;99288.88;6220709;28;96397;-69
2023/10/09 08:19:57;;;;;;;;;5.00;4.00;;;;;12.69;100.00;99280.47;6238289;28;96514;-69
2023/10/09 08:23:04;;;;;;;;;3.00;3.00;;;;;12.76;100.00;99269.56;6202060;28;96522;-69
2023/10/09 08:26:12;;;;;;;;;2.00;2.00;;;;;12.76;100.00;99264.16;6238561;28;96367;-69
2023/10/09 08:29:17;;;;;;;;;3.00;2.80;;;;;12.67;100.00;99252.81;6238241;28;96563;-69
2023/10/09 08:32:38;;;;;;;;;2.60;2.00;;;;;12.73;100.00;99249.22;6237239;28;97019;-69
2023/10/09 08:35:47;;;;;;;;;2.00;2.00;;;;;12.47;100.00;99250.34;6237678;28;96345;-69
2023/10/09 08:38:58;;;;;;;;;2.00;2.00;;;;;12.47;100.00;99246.81;6219812;28;96695;-69
2023/10/09 08:42:07;;;;;;;;;4.40;4.40;;;;;12.54;100.00;99239.47;6236886;28;96180;-69
2023/10/09 08:45:14;;;;;;;;;3.00;2.00;;;;;12.72;100.00;99233.19;6238155;28;96247;-69
2023/10/09 08:48:17;;;;;;;;;3.75;3.00;;;;;12.83;100.00;99230.56;6237285;28;96989;-69
2023/10/09 08:51:25;;;;;;;;;4.00;3.00;;;;;12.78;100.00;99229.59;6237741;28;96456;-69
2023/10/09 08:54:33;;;;;;;;;1.40;1.40;;;;;12.88;100.00;99217.19;6219200;28;96633;-69
2023/10/09 08:57:40;;;;;;;;;4.50;4.00;;;;;13.01;100.00;99202.63;6236887;28;96624;-69
2023/10/09 09:00:45;;;;;;;;;4.00;3.33;;;;;13.28;100.00;99200.41;6238443;28;96433;-69
2023/10/09 09:03:50;;;;;;;;;3.40;3.00;;;;;13.62;100.00;99196.94;6217384;28;96685;-69
2023/10/09 09:06:54;;;;;;;;;1.80;1.80;;;;;13.79;100.00;99181.63;6239253;27;97089;-69
2023/10/09 09:10:03;;;;;;;;;3.00;3.00;;;;;13.86;100.00;99179.66;6241258;28;96668;-69
2023/10/09 09:13:10;;;;;;;;;2.00;2.00;;;;;14.01;100.00;99172.91;6241898;28;96355;-69
2023/10/09 09:16:17;;;;;;;;;2.00;1.60;;;;;14.13;100.00;99169.13;6241946;28;96334;-69
2023/10/09 09:19:32;;;;;;;;;2.50;2.50;;;;;14.20;100.00;99161.69;6241893;28;96280;-69
2023/10/09 09:22:53;;;;;;;;;3.00;3.00;;;;;14.04;100.00;99167.00;6223124;27;96508;-69
2023/10/09 09:26:01;;;;;;;;;3.40;3.40;;;;;14.07;100.00;99145.69;6241646;28;96311;-69
2023/10/09 09:29:06;;;;;;;;;5.00;5.00;;;;;14.09;100.00;99121.88;6223701;28;96827;-69
2023/10/09 09:32:18;;;;;;;;;2.40;2.00;;;;;13.67;100.00;99121.22;6223493;28;96351;-69
2023/10/09 09:35:26;;;;;;;;;3.25;3.25;;;;;13.26;100.00;99132.13;6236121;28;96612;-69
2023/10/09 09:38:47;;;;;;;;;3.00;2.40;;;;;13.28;100.00;99136.25;6223701;28;96492;-69
2023/10/09 09:41:52;;;;;;;;;3.40;3.40;;;;;13.38;100.00;99120.25;6241436;28;96386;-69
2023/10/09 09:44:57;;;;;;;;;5.40;5.40;;;;;13.39;100.00;99130.00;6256987;27;96369;-69
2023/10/09 09:48:05;;;;;;;;;1.80;1.80;;;;;13.22;100.00;99137.19;6241487;28;96512;-68
2023/10/09 09:51:09;;;;;;;;;2.00;2.00;;;;;12.70;100.00;99136.06;6241804;28;96569;-69
2023/10/09 09:54:15;;;;;;;;;2.00;2.00;;;;;12.67;100.00;99139.22;6239899;28;96723;-69
2023/10/09 09:57:25;;;;;;;;;2.80;2.20;;;;;12.48;100.00;99132.19;6221097;28;97301;-69
2023/10/09 10:00:42;;;;;;;;;4.00;4.00;;;;;12.55;100.00;99128.34;6238756;28;96376;-69
2023/10/09 10:03:50;;;;;;;;;5.00;4.00;;;;;12.73;100.00;99127.47;6234833;27;96495;-67
2023/10/09 10:06:59;;;;;;;;;4.40;4.40;;;;;12.81;100.00;99121.72;6221575;28;96882;-68
2023/10/09 10:10:47;;;;;;;;;4.20;4.20;;;;;12.79;100.00;99107.63;6238472;28;96515;-68
2023/10/09 10:14:00;;;;;;;;;4.00;3.40;;;;;12.78;100.00;99113.25;6240573;28;96523;-69
2023/10/09 10:17:11;;;;;;;;;2.60;2.60;;;;;12.92;100.00;99120.94;6205903;27;96656;-69
2023/10/09 10:20:26;;;;;;;;;2.25;2.25;;;;;13.18;100.00;99113.50;6240490;28;96305;-69
2023/10/09 10:23:32;;;;;;;;;2.60;2.60;;;;;13.30;100.00;99109.75;6239425;27;96568;-69
2023/10/09 10:26:37;;;;;;;;;4.80;4.20;;;;;13.20;100.00;99117.63;6239111;28;96994;-67
2023/10/09 10:29:41;;;;;;;;;2.00;2.00;;;;;13.33;100.00;99097.66;6239499;28;96533;-69
2023/10/09 10:32:57;;;;;;;;;3.00;3.00;;;;;13.06;100.00;99090.97;6239567;28;96304;-69
2023/10/09 10:36:06;;;;;;;;;2.60;2.60;;;;;12.76;100.00;99086.41;6236841;28;96427;-68
2023/10/09 10:39:11;;;;;;;;;1.80;1.80;;;;;12.57;100.00;99069.44;6221676;28;96364;-69
2023/10/09 10:42:33;;;;;;;;;6.00;3.00;;;;;12.78;100.00;99068.09;6238645;28;96452;-69
2023/10/09 10:45:38;;;;;;;;;2.00;2.00;;;;;12.90;100.00;99070.84;6229779;28;96843;-69
2023/10/09 10:48:46;;;;;;;;;4.00;4.00;;;;;13.08;100.00;99064.50;6218411;28;97160;-69
2023/10/09 10:52:00;;;;;;;;;2.60;2.00;;;;;13.16;100.00;99058.75;6239287;28;96294;-69
2023/10/09 10:58:36;;;;;;;;;3.60;3.00;;;;;13.25;100.00;99046.53;6208852;28;96407;-69
2023/10/09 11:05:14;;;;;;;;;3.00;3.00;;;;;13.50;100.00;99035.47;6225382;28;96431;-68
2023/10/09 11:08:22;;;;;;;;;3.00;2.20;;;;;13.39;100.00;99008.16;6239481;28;96462;-69
2023/10/09 11:11:32;;;;;;;;;3.00;3.00;;;;;12.92;100.00;99011.88;6237083;28;96499;-69
2023/10/09 11:14:45;;;;;;;;;2.00;2.00;;;;;13.06;100.00;99010.59;6238050;28;96577;-69
2023/10/09 11:18:04;;;;;;;;;3.00;3.00;;;;;13.32;100.00;98996.63;6237606;28;96910;-69
2023/10/09 11:24:37;;;;;;;;;4.00;3.00;;;;;13.13;100.00;98978.03;6195204;28;97846;-69
2023/10/09 11:27:50;;;;;;;;;2.50;2.50;;;;;12.44;100.00;98977.69;6237927;28;96898;-69
2023/10/09 11:30:56;;;;;;;;;2.00;2.00;;;;;12.45;100.00;98965.00;6238196;27;97159;-69
2023/10/09 11:34:01;;;;;;;;;3.00;2.00;;;;;12.37;100.00;98966.16;6238519;28;96508;-69
2023/10/09 11:37:15;;;;;;;;;5.40;4.60;;;;;12.50;100.00;98952.44;6220529;28;96983;-69
2023/10/09 11:40:47;;;;;;;;;3.00;3.00;;;;;12.53;100.00;98953.84;6238417;28;96316;-69
2023/10/09 11:43:52;;;;;;;;;3.00;2.40;;;;;12.58;100.00;98960.19;6238938;28;96464;-69
2023/10/09 11:47:14;;;;;;;;;3.00;2.60;;;;;12.61;100.00;98961.59;6237720;28;96469;-69
2023/10/09 11:50:17;;;;;;;;;2.00;2.00;;;;;12.42;100.00;98954.63;6219787;28;99201;-69
2023/10/09 11:53:34;;;;;;;;;1.20;1.00;;;;;12.47;100.00;98958.28;6226738;28;96825;-69
2023/10/09 11:56:37;;;;;;;;;3.80;3.00;;;;;12.48;100.00;98948.31;6218010;28;96745;-68
2023/10/09 11:59:41;;;;;;;;;2.60;2.60;;;;;12.51;100.00;98943.25;6217864;28;98446;-69
2023/10/09 12:02:46;;;;;;;;;3.00;2.00;;;;;12.47;100.00;98938.53;6236095;28;96765;-68
2023/10/09 12:05:49;;;;;;;;;2.00;2.00;;;;;12.49;100.00;98931.03;6222590;28;96429;-68
2023/10/09 12:08:53;;;;;;;;;5.00;4.00;;;;;12.50;100.00;98919.16;6215303;28;97594;-68
2023/10/09 12:12:00;;;;;;;;;2.00;2.00;;;;;12.53;100.00;98910.56;6234079;28;97246;-67
2023/10/09 12:15:13;;;;;;;;;3.00;3.00;;;;;12.59;100.00;98904.22;6233430;28;96598;-69
2023/10/09 12:18:23;;;;;;;;;5.00;4.00;;;;;12.47;100.00;98906.91;6219468;28;96896;-69
2023/10/09 12:21:28;;;;;;;;;3.50;3.50;;;;;12.43;100.00;98918.44;6218916;28;98432;-69
2023/10/09 12:24:33;;;;;;;;;3.75;3.75;;;;;12.36;100.00;98925.84;6218455;28;96312;-68
2023/10/09 12:27:36;;;;;;;;;6.00;5.00;;;;;12.34;100.00;98919.81;6228972;28;96387;-69
2023/10/09 12:30:40;;;;;;;;;3.00;2.00;;;;;12.04;100.00;98911.75;6237000;28;96406;-69
2023/10/09 12:33:44;;;;;;;;;3.67;3.00;;;;;12.30;100.00;98915.94;6237094;28;96312;-68
2023/10/09 12:36:49;;;;;;;;;5.00;4.50;;;;;12.32;100.00;98914.66;6236034;28;96351;-66
2023/10/09 12:39:55;;;;;;;;;4.25;4.25;;;;;12.32;100.00;98909.25;6236828;28;96329;-69
2023/10/09 12:42:59;;;;;;;;;7.00;7.00;;;;;12.42;100.00;98903.25;6235286;28;97011;-69
2023/10/09 12:46:06;;;;;;;;;5.80;5.20;;;;;12.51;100.00;98899.19;6218128;28;96724;-68
2023/10/09 12:49:11;;;;;;;;;6.00;5.00;;;;;12.58;100.00;98897.16;6237689;28;96400;-69
2023/10/09 12:52:16;;;;;;;;;3.00;3.00;;;;;12.52;100.00;98898.09;6234515;27;96689;-69
2023/10/09 12:55:21;;;;;;;;;4.00;4.00;;;;;12.35;100.00;98895.28;6228405;28;96600;-69
2023/10/09 12:58:26;;;;;;;;;4.00;3.80;;;;;12.52;100.00;98890.00;6237342;28;96392;-68
2023/10/09 13:01:31;;;;;;;;;4.00;4.00;;;;;12.64;100.00;98896.25;6228017;28;96681;-69
2023/10/09 13:04:40;;;;;;;;;3.00;2.20;;;;;12.45;100.00;98881.19;6235011;28;98348;-69
2023/10/09 13:07:44;;;;;;;;;2.00;2.00;;;;;12.53;100.00;98894.34;6237368;28;97615;-69
2023/10/09 13:10:58;;;;;;;;;3.00;3.00;;;;;12.62;100.00;98902.94;6236122;28;96443;-68
2023/10/09 13:14:11;;;;;;;;;6.00;6.00;;;;;12.71;100.00;98898.81;6236727;28;96216;-67
2023/10/09 13:17:14;;;;;;;;;5.00;5.00;;;;;12.76;100.00;98913.28;6235709;28;96447;-69
2023/10/09 13:20:19;;;;;;;;;6.40;5.00;;;;;12.70;100.00;98908.84;6218700;28;96871;-69
2023/10/09 13:23:33;;;;;;;;;4.00;4.00;;;;;12.80;100.00;98905.53;6201911;28;96867;-69
2023/10/09 13:26:37;;;;;;;;;7.00;6.00;;;;;12.87;100.00;98901.66;6218868;28;97600;-69
2023/10/09 13:29:41;;;;;;;;;7.00;6.00;;;;;12.99;100.00;98891.66;6233231;28;96658;-68
2023/10/09 13:32:48;;;;;;;;;5.00;5.00;;;;;12.98;100.00;98889.16;6233857;27;96699;-68
2023/10/09 13:35:53;;;;;;;;;6.75;6.75;;;;;13.03;100.00;98882.00;6250248;27;96457;-69
2023/10/09 13:38:57;;;;;;;;;4.20;4.00;;;;;12.93;100.00;98876.34;6248466;27;96553;-69
2023/10/09 13:42:03;;;;;;;;;7.40;6.40;;;;;13.02;100.00;98882.22;6235995;27;96833;-69
2023/10/09 13:45:15;;;;;;;;;6.00;5.60;;;;;13.14;100.00;98874.94;6234700;28;96930;-69
2023/10/09 13:48:20;;;;;;;;;5.00;4.00;;;;;13.20;100.00;98863.16;6228822;28;96952;-69
2023/10/09 13:51:25;;;;;;;;;6.00;5.00;;;;;13.21;100.00;98853.13;6215998;28;96681;-69
2023/10/09 13:54:40;;;;;;;;;7.00;6.00;;;;;13.12;100.00;98852.69;6233642;27;96630;-67
2023/10/09 13:57:45;;;;;;;;;5.00;4.60;;;;;13.23;100.00;98865.38;6224368;28;96459;-68
2023/10/09 14:00:49;;;;;;;;;6.00;5.00;;;;;13.31;100.00;98867.72;6235859;28;96582;-68
2023/10/09 14:03:53;;;;;;;;;5.40;5.40;;;;;13.41;100.00;98872.50;6237880;28;96564;-68
2023/10/09 14:07:01;;;;;;;;;4.80;4.20;;;;;13.47;100.00;98870.72;6238570;28;96433;-68
2023/10/09 14:10:17;;;;;;;;;5.20;4.60;;;;;13.44;100.00;98863.91;6238373;28;96337;-69
2023/10/09 14:13:25;;;;;;;;;5.00;3.80;;;;;13.35;100.00;98868.88;6203169;28;97343;-68
2023/10/09 14:16:32;;;;;;;;;6.00;6.00;;;;;13.25;100.00;98874.06;6215067;28;96408;-69
2023/10/09 14:19:36;;;;;;;;;6.00;6.00;;;;;13.15;100.00;98867.63;6196929;28;96835;-69
2023/10/09 14:22:40;;;;;;;;;8.00;7.60;;;;;13.07;100.00;98854.44;6215263;27;96447;-69
2023/10/09 14:25:44;;;;;;;;;8.80;7.80;;;;;13.11;100.00;98861.03;6204312;28;97198;-69
2023/10/09 14:28:48;;;;;;;;;9.50;9.00;;;;;13.19;100.00;98858.81;6239406;28;96117;-68
2023/10/09 14:32:00;;;;;;;;;7.80;7.00;;;;;13.24;100.00;98842.66;6239392;28;97903;-69
2023/10/09 14:35:12;;;;;;;;;7.00;7.00;;;;;13.15;100.00;98840.56;6239253;28;96312;-68
2023/10/09 14:38:19;;;;;;;;;7.60;7.00;;;;;13.14;100.00;98841.63;6237823;28;96503;-69
2023/10/09 14:41:25;;;;;;;;;5.20;5.20;;;;;13.14;100.00;98847.06;6237670;28;96697;-69
2023/10/09 14:44:30;;;;;;;;;11.00;10.00;;;;;13.14;100.00;98841.63;6220495;28;96443;-69
2023/10/09 14:47:33;;;;;;;;;10.00;9.40;;;;;13.21;100.00;98853.13;6228568;27;96367;-69
2023/10/09 14:50:38;;;;;;;;;9.00;9.00;;;;;13.24;100.00;98853.47;6229882;27;97306;-69
2023/10/09 14:53:43;;;;;;;;;7.40;7.00;;;;;13.25;100.00;98874.06;6217419;27;97799;-69
2023/10/09 14:56:47;;;;;;;;;6.60;6.60;;;;;13.32;100.00;98869.38;6243063;27;96634;-69
2023/10/09 14:59:51;;;;;;;;;6.40;6.40;;;;;13.37;100.00;98871.34;6233595;28;96476;-68
2023/10/09 15:02:54;;;;;;;;;7.00;6.00;;;;;13.41;100.00;98869.81;6215108;28;96877;-69
2023/10/09 15:05:59;;;;;;;;;8.00;8.00;;;;;13.42;100.00;98866.03;6229071;27;96856;-69
2023/10/09 15:09:09;;;;;;;;;8.00;8.00;;;;;13.40;100.00;98873.56;6217391;27;98600;-69
2023/10/09 15:12:12;;;;;;;;;8.00;7.00;;;;;13.40;100.00;98866.28;6236829;27;96334;-69
2023/10/09 15:15:15;;;;;;;;;7.40;6.80;;;;;13.39;100.00;98877.34;6211823;28;98780;-67
2023/10/09 15:18:21;;;;;;;;;9.00;8.00;;;;;13.40;100.00;98870.88;6231696;27;96840;-69